createdAt,value
2023-02-01T00:02:55.656Z,99639.41
2023-02-01T00:07:57.089Z,99600.38
2023-02-01T00:12:58.539Z,99599.78
2023-02-01T00:17:59.964Z,99592.16
2023-02-01T00:23:01.396Z,99619.88
2023-02-01T00:28:02.902Z,99608.94
2023-02-01T00:33:04.352Z,99613.09
2023-02-01T00:38:05.762Z,99613.22
2023-02-01T00:43:07.200Z,99618.44
2023-02-01T00:48:08.622Z,99617.56
2023-02-01T00:53:11.113Z,99602.84
2023-02-01T00:58:12.697Z,99616.00
2023-02-01T01:03:20.036Z,99616.13
2023-02-01T01:08:21.462Z,99621.97
2023-02-01T01:13:23.416Z,99641.75
2023-02-01T01:18:24.945Z,99637.66
2023-02-01T01:23:26.791Z,99639.84
2023-02-01T01:28:28.211Z,99626.75
2023-02-01T01:33:29.645Z,99664.97
2023-02-01T01:38:31.078Z,99630.63
2023-02-01T01:43:50.462Z,99649.28
2023-02-01T01:49:01.547Z,99645.63
2023-02-01T01:54:16.340Z,99641.22
2023-02-01T01:59:18.446Z,99651.72
2023-02-01T02:04:20.843Z,99650.88
2023-02-01T02:09:22.701Z,99655.00
2023-02-01T02:14:26.960Z,99650.63
2023-02-01T02:19:47.003Z,99655.69
2023-02-01T02:25:25.678Z,99648.38
2023-02-01T02:30:48.765Z,99648.13
2023-02-01T02:35:56.077Z,99637.19
2023-02-01T02:41:08.497Z,99638.00
2023-02-01T02:47:10.009Z,99640.22
2023-02-01T02:52:38.822Z,99635.34
2023-02-01T02:58:02.411Z,99633.88
2023-02-01T03:03:22.644Z,99638.53
2023-02-01T03:08:28.136Z,99648.78
2023-02-01T03:13:39.347Z,99651.75
2023-02-01T03:18:51.927Z,99654.47
2023-02-01T03:23:57.129Z,99651.53
2023-02-01T03:29:06.661Z,99654.63
2023-02-01T03:34:07.997Z,99652.59
2023-02-01T03:39:28.067Z,99654.53
2023-02-01T03:44:35.376Z,99657.22
2023-02-01T03:49:44.631Z,99645.94
2023-02-01T03:54:47.369Z,99641.75
2023-02-01T03:59:49.059Z,99631.25
2023-02-01T04:04:50.547Z,99631.34
2023-02-01T04:09:52.055Z,99632.16
2023-02-01T04:14:53.487Z,99634.47
2023-02-01T04:19:55.591Z,99632.41
2023-02-01T04:24:57.122Z,99627.78
2023-02-01T04:29:58.694Z,99623.25
2023-02-01T04:35:00.147Z,99633.03
2023-02-01T04:40:01.693Z,99626.69
2023-02-01T04:45:03.658Z,99626.88
2023-02-01T04:50:06.772Z,99621.94
2023-02-01T04:55:08.684Z,99625.91
2023-02-01T05:00:11.098Z,99628.19
2023-02-01T05:05:12.529Z,99625.56
2023-02-01T05:10:16.938Z,99613.00
2023-02-01T05:15:18.393Z,99607.09
2023-02-01T05:20:19.877Z,99594.84
2023-02-01T05:25:21.534Z,99599.44
2023-02-01T05:30:23.209Z,99591.06
2023-02-01T05:35:24.874Z,99595.25
2023-02-01T05:40:26.397Z,99596.97
2023-02-01T05:45:27.907Z,99575.88
2023-02-01T05:50:29.375Z,99573.03
2023-02-01T05:55:30.858Z,99568.72
2023-02-01T06:00:32.757Z,99561.06
2023-02-01T06:05:34.207Z,99556.78
2023-02-01T06:10:35.700Z,99558.31
2023-02-01T06:15:38.468Z,99550.19
2023-02-01T06:20:40.386Z,99550.75
2023-02-01T06:25:41.810Z,99542.75
2023-02-01T06:30:46.937Z,99554.34
2023-02-01T06:35:48.756Z,99569.47
2023-02-01T06:40:54.293Z,99565.03
2023-02-01T06:46:02.267Z,99562.56
2023-02-01T06:51:04.059Z,99567.19
2023-02-01T06:56:05.634Z,99566.28
2023-02-01T07:01:08.715Z,99556.47
2023-02-01T07:06:10.744Z,99579.66
2023-02-01T07:11:14.771Z,99571.28
2023-02-01T07:16:21.786Z,99575.53
2023-02-01T07:21:23.412Z,99578.97
2023-02-01T07:26:24.849Z,99583.81
2023-02-01T07:31:27.491Z,99585.44
2023-02-01T07:36:29.238Z,99578.25
2023-02-01T07:41:30.674Z,99587.22
2023-02-01T07:46:32.114Z,99590.72
2023-02-01T07:51:33.535Z,99584.34
2023-02-01T07:56:34.978Z,99582.34
2023-02-01T08:01:36.566Z,99582.91
2023-02-01T08:06:38.074Z,99574.19
2023-02-01T08:11:39.603Z,99575.47
2023-02-01T08:16:41.152Z,99558.00
2023-02-01T08:21:42.612Z,99562.16
2023-02-01T08:26:44.082Z,99566.81
2023-02-01T08:31:45.583Z,99563.56
2023-02-01T08:36:47.109Z,99554.00
2023-02-01T08:42:08.494Z,99549.25
2023-02-01T08:47:09.922Z,99553.00
2023-02-01T08:52:15.991Z,99558.97
2023-02-01T08:57:18.135Z,99547.00
2023-02-01T09:02:19.879Z,99553.63
2023-02-01T09:07:21.297Z,99542.56
2023-02-01T09:12:23.984Z,99549.09
2023-02-01T09:17:26.155Z,99536.84
2023-02-01T09:22:27.593Z,99538.47
2023-02-01T09:27:29.268Z,99546.47
2023-02-01T09:32:30.685Z,99538.53
2023-02-01T09:37:32.132Z,99543.47
2023-02-01T09:43:02.742Z,99526.38
2023-02-01T09:48:20.985Z,99523.31
2023-02-01T09:54:03.830Z,99512.25
2023-02-01T09:59:20.242Z,99512.69
2023-02-01T10:04:21.810Z,99509.28
2023-02-01T10:10:01.322Z,99500.69
2023-02-01T10:15:23.487Z,99493.91
2023-02-01T10:20:31.289Z,99499.25
2023-02-01T10:25:35.655Z,99494.00
2023-02-01T10:30:45.338Z,99488.63
2023-02-01T10:35:51.447Z,99479.31
2023-02-01T10:40:56.163Z,99462.16
2023-02-01T10:45:58.285Z,99460.63
2023-02-01T10:51:03.489Z,99463.41
2023-02-01T10:56:13.180Z,99460.59
2023-02-01T11:01:29.564Z,99451.59
2023-02-01T11:06:34.759Z,99446.84
2023-02-01T11:12:02.522Z,99435.31
2023-02-01T11:17:16.051Z,99424.44
2023-02-01T11:22:18.743Z,99436.47
2023-02-01T11:27:27.533Z,99416.97
2023-02-01T11:32:29.542Z,99421.38
2023-02-01T11:37:41.076Z,99427.47
2023-02-01T11:42:55.773Z,99415.47
2023-02-01T11:47:59.093Z,99401.16
2023-02-01T11:53:37.938Z,99402.13
2023-02-01T11:58:50.884Z,99400.72
2023-02-01T12:04:07.513Z,99392.56
2023-02-01T12:09:14.822Z,99385.47
2023-02-01T12:14:32.884Z,99377.78
2023-02-01T12:20:04.270Z,99386.22
2023-02-01T12:25:17.887Z,99381.31
2023-02-01T12:30:45.973Z,99393.00
2023-02-01T12:36:09.454Z,99381.63
2023-02-01T12:41:17.325Z,99390.16
2023-02-01T12:46:37.424Z,99391.56
2023-02-01T12:51:44.221Z,99375.28
2023-02-01T12:57:04.045Z,99389.94
2023-02-01T13:02:26.196Z,99411.25
2023-02-01T13:07:35.047Z,99411.81
2023-02-01T13:12:43.289Z,99415.13
2023-02-01T13:17:47.355Z,99422.13
2023-02-01T13:22:58.920Z,99412.69
2023-02-01T13:28:11.941Z,99421.56
2023-02-01T13:33:55.594Z,99424.19
2023-02-01T13:39:05.040Z,99425.31
2023-02-01T13:44:15.438Z,99410.38
2023-02-01T13:49:23.161Z,99420.19
2023-02-01T13:54:33.717Z,99443.97
2023-02-01T13:59:51.741Z,99445.91
2023-02-01T14:04:53.949Z,99436.91
2023-02-01T14:09:55.940Z,99437.66
2023-02-01T14:15:19.851Z,99411.63
2023-02-01T14:20:41.734Z,99444.91
2023-02-01T14:25:44.060Z,99441.19
2023-02-01T14:30:47.920Z,99446.72
2023-02-01T14:36:06.101Z,99447.03
2023-02-01T14:41:26.741Z,99445.97
2023-02-01T14:47:08.716Z,99449.72
2023-02-01T14:52:16.610Z,99436.03
2023-02-01T14:57:21.506Z,99444.91
2023-02-01T15:02:27.642Z,99452.50
2023-02-01T15:07:30.248Z,99449.78
2023-02-01T15:12:34.098Z,99448.00
2023-02-01T15:17:35.563Z,99468.81
2023-02-01T15:22:37.041Z,99459.13
2023-02-01T15:27:38.517Z,99466.16
2023-02-01T15:32:41.229Z,99464.44
2023-02-01T15:37:42.640Z,99467.22
2023-02-01T15:42:53.013Z,99457.44
2023-02-01T15:47:57.795Z,99467.66
2023-02-01T15:52:59.409Z,99472.72
2023-02-01T15:58:00.985Z,99470.47
2023-02-01T16:03:07.154Z,99477.53
2023-02-01T16:08:15.310Z,99473.34
2023-02-01T16:13:21.067Z,99478.50
2023-02-01T16:18:22.524Z,99466.47
2023-02-01T16:23:23.985Z,99479.09
2023-02-01T16:28:25.779Z,99484.44
2023-02-01T16:33:27.802Z,99489.66
2023-02-01T16:38:29.462Z,99483.78
2023-02-01T16:43:31.437Z,99486.19
2023-02-01T16:48:36.637Z,99472.44
2023-02-01T16:53:53.036Z,99475.88
2023-02-01T16:58:55.563Z,99464.06
2023-02-01T17:03:57.222Z,99454.91
2023-02-01T17:09:00.383Z,99445.31
2023-02-01T17:14:14.619Z,99439.91
2023-02-01T17:19:20.311Z,99429.50
2023-02-01T17:24:25.933Z,99427.75
2023-02-01T17:29:30.551Z,99413.88
2023-02-01T17:34:32.120Z,99406.41
2023-02-01T17:39:52.143Z,99396.69
2023-02-01T17:44:58.322Z,99382.16
2023-02-01T17:49:59.816Z,99394.63
2023-02-01T17:55:01.777Z,99386.25
2023-02-01T18:00:04.355Z,99371.72
2023-02-01T18:05:20.507Z,99379.16
2023-02-01T18:10:21.939Z,99372.56
2023-02-01T18:15:26.192Z,99360.81
2023-02-01T18:20:28.410Z,99342.44
2023-02-01T18:25:37.058Z,99325.22
2023-02-01T18:30:38.642Z,99325.13
2023-02-01T18:35:40.585Z,99325.97
2023-02-01T18:40:53.637Z,99301.56
2023-02-01T18:45:55.595Z,99296.63
2023-02-01T18:50:57.796Z,99276.84
2023-02-01T18:55:59.641Z,99276.44
2023-02-01T19:01:06.372Z,99257.38
2023-02-01T19:06:08.402Z,99251.09
2023-02-01T19:11:10.435Z,99250.31
2023-02-01T19:16:13.615Z,99242.94
2023-02-01T19:21:15.553Z,99255.97
2023-02-01T19:26:18.101Z,99242.41
2023-02-01T19:31:19.702Z,99234.41
2023-02-01T19:36:21.197Z,99217.72
2023-02-01T19:41:22.625Z,99217.06
2023-02-01T19:46:24.487Z,99207.25
2023-02-01T19:51:25.918Z,99217.22
2023-02-01T19:56:27.504Z,99196.06
2023-02-01T20:01:28.187Z,99212.09
2023-02-01T20:06:30.839Z,99206.75
2023-02-01T20:11:32.491Z,99212.78
2023-02-01T20:16:34.063Z,99245.72
2023-02-01T20:21:37.247Z,99229.06
2023-02-01T20:26:40.149Z,99230.00
2023-02-01T20:31:41.797Z,99275.31
2023-02-01T20:36:43.397Z,99254.66
2023-02-01T20:41:44.826Z,99273.34
2023-02-01T20:46:47.561Z,99264.94
2023-02-01T20:51:49.054Z,99284.63
2023-02-01T20:56:50.534Z,99280.25
2023-02-01T21:01:53.234Z,99295.03
2023-02-01T21:06:55.724Z,99309.69
2023-02-01T21:11:57.217Z,99304.75
2023-02-01T21:16:58.659Z,99323.81
2023-02-01T21:22:00.067Z,99325.13
2023-02-01T21:27:01.538Z,99338.16
2023-02-01T21:32:03.411Z,99336.06
2023-02-01T21:37:05.219Z,99341.22
2023-02-01T21:42:17.638Z,99345.44
2023-02-01T21:47:21.337Z,99353.03
2023-02-01T21:52:28.017Z,99361.78
2023-02-01T21:57:29.628Z,99362.75
2023-02-01T22:02:31.077Z,99368.66
2023-02-01T22:07:35.733Z,99354.56
2023-02-01T22:12:37.153Z,99370.38
2023-02-01T22:17:38.629Z,99372.00
2023-02-01T22:22:40.077Z,99373.97
2023-02-01T22:28:32.297Z,99389.22
2023-02-01T22:33:03.382Z,99388.66
2023-02-01T22:38:04.806Z,99383.31
2023-02-01T22:43:06.282Z,99400.13
2023-02-01T22:48:07.783Z,99412.13
2023-02-01T22:53:09.343Z,99396.44
2023-02-01T22:58:10.769Z,99406.00
2023-02-01T23:03:12.220Z,99403.22
2023-02-01T23:08:13.659Z,99397.94
2023-02-01T23:13:15.129Z,99423.69
2023-02-01T23:18:16.554Z,99413.75
2023-02-01T23:23:17.947Z,99421.22
2023-02-01T23:28:19.383Z,99424.63
2023-02-01T23:33:25.735Z,99418.25
2023-02-01T23:38:27.671Z,99411.69
2023-02-01T23:43:47.997Z,99406.16
2023-02-01T23:48:51.456Z,99404.09
2023-02-01T23:53:53.823Z,99398.91
2023-02-01T23:58:56.696Z,99394.59
